Date,TemperatureHighF,TemperatureAvgF,TemperatureLowF,DewpointHighF,DewpointAvgF,DewpointLowF,HumidityHigh,HumidityAvg,HumidityLow,PressureMaxIn,PressureMinIn,WindSpeedMaxMPH,WindSpeedAvgMPH,GustSpeedMaxMPH,PrecipitationSumIn
2013-6-1,57.8,51.7,45.2,56.6,49.7,43.0,96,93,90,29.74,29.65,7,1,14,0.62
2013-6-2,57.9,53.1,49.7,56.5,51.2,47.6,96,93,85,30.04,29.67,3,1,11,1.17
2013-6-3,51.4,49.1,46.7,49.0,47.1,45.2,95,93,90,30.13,30.04,2,0,5,0.52
2013-6-4,61.7,55.3,49.6,53.1,50.9,47.4,93,85,70,30.11,30.04,3,0,8,0.05
2013-6-5,68.3,58.0,46.2,53.9,49.4,43.4,93,74,51,30.13,30.08,1,0,7,0.00
2013-6-6,68.1,59.9,52.3,59.0,54.0,49.3,90,81,66,30.18,30.12,1,0,4,0.00
2013-6-7,71.6,63.0,52.0,61.7,56.5,49.7,94,80,65,30.15,30.06,2,0,9,0.00
2013-6-8,79.8,67.8,54.8,63.5,58.3,53.1,95,74,42,30.08,29.89,1,0,7,0.00
2013-6-9,80.8,65.5,57.0,64.4,58.5,55.0,95,80,51,29.89,29.69,4,0,13,0.27
2013-6-10,62.8,59.2,56.7,59.5,56.6,53.4,96,91,84,29.86,29.69,2,0,6,0.09
2013-6-11,73.3,62.9,51.2,54.5,48.8,41.6,93,64,35,30.07,29.86,4,1,11,0.00
2013-6-12,76.4,65.4,50.2,54.4,48.3,41.1,90,57,29,30.14,30.07,3,0,6,0.00
2013-6-13,80.2,69.0,52.2,59.9,54.0,46.5,86,61,41,30.14,29.91,3,1,10,0.00
2013-6-14,66.4,63.0,60.7,55.8,54.4,53.4,83,74,64,30.00,29.91,4,2,7,0.00
2013-6-15,78.4,65.3,52.0,61.2,54.9,48.3,89,70,50,30.07,29.92,4,1,12,0.00
2013-6-16,79.9,70.2,59.2,59.0,55.0,48.9,83,61,40,30.05,29.97,3,1,7,0.00
2013-6-17,86.4,73.0,57.6,64.8,60.0,53.3,87,66,46,30.05,29.94,4,1,10,0.00
2013-6-18,94.4,79.8,65.2,74.8,68.6,61.1,88,70,48,30.01,29.93,2,1,7,0.00
2013-6-19,91.1,80.5,68.0,75.0,70.0,64.6,90,72,54,30.02,29.89,4,1,12,0.00
2013-6-20,92.6,81.0,69.0,75.3,70.2,64.7,88,71,54,29.90,29.73,4,1,12,0.00
2013-6-21,80.5,72.3,63.8,65.8,61.5,59.6,90,70,52,30.00,29.82,5,1,19,0.06
2013-6-22,83.0,72.3,63.6,63.7,60.0,56.4,87,67,44,30.03,29.92,3,0,8,0.02
2013-6-23,78.0,69.5,61.6,63.2,59.7,53.5,89,72,54,29.96,29.88,4,1,12,0.09
2013-6-24,63.5,60.6,58.3,53.1,51.5,49.4,78,72,68,30.02,29.96,1,0,5,0.00
2013-6-25,55.4,54.1,51.1,53.9,51.9,48.9,95,92,83,30.15,29.99,2,1,7,1.09
2013-6-26,57.5,52.6,50.0,49.6,47.7,45.2,92,83,69,30.28,30.14,2,1,7,0.02
2013-6-27,62.8,56.1,49.4,49.2,46.5,42.7,88,71,51,30.28,30.19,3,1,6,0.00
2013-6-28,68.7,59.0,44.9,53.2,48.1,42.4,93,69,45,30.20,30.08,2,0,6,0.00
2013-6-29,57.0,51.9,49.8,50.5,47.9,46.7,90,86,79,30.10,30.08,4,2,10,0.00
2013-6-30,65.2,57.9,51.4,54.5,47.0,42.5,92,69,46,30.20,30.08,2,0,7,0.02